Time;durP1;ratioP1;P1;durP2;ratioP2;P2;SDS_P1;SDS_P2;PMS_P1;PMS_P2;Temp;Humidity;BMP_temperature;BMP_pressure;BME280_temperature;BME280_humidity;BME280_pressure;Samples;Min_cycle;Max_cycle;Signal;HPM_P1;HPM_P2
2022/09/23 00:01:52;;;;;;;22.98;14.45;;;;;;;14.49;65.07;99711.25;1771143;81;21143;-79
2022/09/23 00:04:58;;;;;;;22.55;12.93;;;;;;;14.40;65.39;99706.16;1771173;81;21764;-79
2022/09/23 00:08:02;;;;;;;29.05;13.55;;;;;;;14.38;65.40;99706.89;1771145;81;21800;-78
2022/09/23 00:11:15;;;;;;;23.15;12.90;;;;;;;14.34;65.36;99706.47;1769923;81;21756;-79
2022/09/23 00:14:21;;;;;;;24.65;14.13;;;;;;;14.40;65.22;99708.91;1771379;81;21167;-79
2022/09/23 00:17:27;;;;;;;22.22;13.18;;;;;;;14.30;65.22;99709.33;1771065;81;21180;-79
2022/09/23 00:20:27;;;;;;;21.60;12.82;;;;;;;14.35;65.13;99709.56;1770073;81;21805;-79
2022/09/23 00:23:31;;;;;;;24.65;12.63;;;;;;;14.53;64.55;99712.48;1771212;81;21187;-79
2022/09/23 00:26:36;;;;;;;21.62;11.50;;;;;;;14.47;64.75;99708.34;1771041;81;21241;-79
2022/09/23 00:29:42;;;;;;;25.30;13.40;;;;;;;14.36;65.09;99707.12;1769672;81;21778;-78
2022/09/23 00:32:47;;;;;;;25.10;13.90;;;;;;;14.35;65.31;99708.19;1771241;81;21230;-78
2022/09/23 00:35:48;;;;;;;25.10;12.70;;;;;;;14.38;65.21;99707.73;1771157;81;21188;-78
2022/09/23 00:38:40;;;;;;;21.80;12.55;;;;;;;14.33;65.37;99703.41;1771236;81;21175;-78
2022/09/23 00:41:46;;;;;;;25.17;11.95;;;;;;;14.43;65.20;99695.55;1770848;81;21785;-78
2022/09/23 00:44:53;;;;;;;27.30;11.80;;;;;;;14.45;65.19;99697.56;1769657;81;21163;-78
2022/09/23 00:48:04;;;;;;;22.25;11.88;;;;;;;14.45;65.34;99696.73;1771160;81;21187;-78
2022/09/23 00:51:02;;;;;;;25.45;12.00;;;;;;;14.50;65.25;99696.95;1769816;81;21218;-79
2022/09/23 00:54:07;;;;;;;19.60;11.53;;;;;;;14.45;65.45;99689.84;1771089;81;21183;-79
2022/09/23 00:57:14;;;;;;;16.75;10.20;;;;;;;14.49;65.42;99693.36;1775023;81;21192;-79
2022/09/23 01:00:20;;;;;;;15.75;9.95;;;;;;;14.36;65.91;99697.48;1775911;81;21746;-77
2022/09/23 01:03:26;;;;;;;25.72;12.23;;;;;;;14.38;65.87;99682.97;1776438;81;21577;-78
2022/09/23 01:06:34;;;;;;;18.37;10.88;;;;;;;14.38;65.94;99673.87;1776684;81;21176;-78
2022/09/23 01:09:40;;;;;;;15.72;9.88;;;;;;;14.42;65.85;99671.02;1775086;81;21813;-78
2022/09/23 01:13:01;;;;;;;16.35;9.53;;;;;;;14.42;65.81;99669.63;1776624;81;21168;-78
2022/09/23 01:16:27;;;;;;;21.52;10.32;;;;;;;14.33;66.08;99670.40;1776844;81;21232;-78
2022/09/23 01:20:13;;;;;;;17.07;9.05;;;;;;;14.35;65.75;99672.42;1775949;81;21247;-78
2022/09/23 01:23:48;;;;;;;17.67;9.40;;;;;;;14.37;65.80;99676.32;1776661;81;21176;-78
2022/09/23 01:27:07;;;;;;;18.45;10.13;;;;;;;14.35;65.71;99690.30;1776570;81;21152;-78
2022/09/23 01:30:22;;;;;;;19.07;10.43;;;;;;;14.36;65.71;99693.36;1776187;81;21247;-78
2022/09/23 01:33:31;;;;;;;20.50;10.48;;;;;;;14.52;65.38;99703.07;1776641;81;21849;-79
2022/09/23 01:36:47;;;;;;;23.30;11.90;;;;;;;14.60;65.13;99702.84;1777585;81;21187;-79
2022/09/23 01:40:06;;;;;;;17.27;10.13;;;;;;;14.53;65.31;99702.00;1775122;81;21156;-79
2022/09/23 01:43:33;;;;;;;21.75;12.37;;;;;;;14.42;65.65;99705.41;1776749;81;21156;-79
2022/09/23 01:46:44;;;;;;;18.45;11.10;;;;;;;14.41;65.64;99710.06;1776501;81;21742;-78
2022/09/23 01:50:55;;;;;;;19.57;11.20;;;;;;;14.31;65.94;99705.02;1776006;81;21196;-78
2022/09/23 01:53:15;;;;;;;22.87;12.60;;;;;;;14.28;66.20;99705.97;1774926;81;21160;-77
2022/09/23 01:56:47;;;;;;;21.35;11.85;;;;;;;14.19;66.48;99699.00;1775473;80;21266;-78
2022/09/23 02:00:03;;;;;;;20.23;11.38;;;;;;;14.13;66.82;99690.24;1771210;81;21187;-80
2022/09/23 02:03:12;;;;;;;18.50;11.20;;;;;;;14.06;67.10;99691.08;1769716;81;21226;-77
2022/09/23 02:06:38;;;;;;;23.67;12.50;;;;;;;14.10;67.16;99695.63;1769781;81;21203;-78
2022/09/23 02:09:52;;;;;;;33.90;16.42;;;;;;;14.17;67.16;99688.75;1769777;81;21182;-78
2022/09/23 02:13:04;;;;;;;27.35;15.30;;;;;;;14.10;67.29;99687.91;1771112;81;21191;-78
2022/09/23 02:16:13;;;;;;;31.37;16.50;;;;;;;13.99;67.94;99682.01;1769905;81;21163;-78
2022/09/23 02:19:30;;;;;;;34.67;16.82;;;;;;;14.00;68.11;99681.47;1771049;81;21171;-78
2022/09/23 02:22:52;;;;;;;31.02;16.85;;;;;;;13.90;68.52;99687.41;1771171;81;21183;-78
2022/09/23 02:26:29;;;;;;;38.70;18.75;;;;;;;13.94;68.66;99694.71;1771321;81;21732;-78
2022/09/23 02:30:16;;;;;;;32.45;17.25;;;;;;;14.00;68.67;99696.59;1770803;81;21168;-78
2022/09/23 02:33:31;;;;;;;33.67;18.25;;;;;;;13.92;68.96;99688.56;1769630;81;21191;-77
2022/09/23 02:36:41;;;;;;;33.63;18.00;;;;;;;13.91;69.04;99682.22;1769657;81;21206;-78
2022/09/23 02:40:11;;;;;;;34.48;18.10;;;;;;;13.95;68.96;99673.87;1771139;81;21195;-78
2022/09/23 02:43:34;;;;;;;36.90;19.50;;;;;;;13.93;68.97;99674.63;1771149;81;21770;-80
2022/09/23 02:46:42;;;;;;;38.48;21.00;;;;;;;13.95;69.04;99677.15;1730612;80;21191;-78
2022/09/23 02:49:48;;;;;;;39.83;20.97;;;;;;;13.92;69.21;99674.28;1771017;81;21187;-78
2022/09/23 02:52:54;;;;;;;41.45;21.40;;;;;;;13.95;69.17;99671.65;1763024;81;21160;-78
2022/09/23 02:56:00;;;;;;;36.30;21.23;;;;;;;13.92;69.31;99672.91;1769735;81;21221;-78
2022/09/23 02:59:05;;;;;;;47.10;21.87;;;;;;;13.83;69.64;99670.06;1769113;80;21278;-78
2022/09/23 03:02:32;;;;;;;41.33;21.40;;;;;;;13.92;69.50;99678.41;1770303;81;21163;-78
2022/09/23 03:05:39;;;;;;;41.33;21.05;;;;;;;13.95;69.34;99685.40;1770695;81;21210;-80
2022/09/23 03:08:55;;;;;;;39.45;21.02;;;;;;;13.95;69.31;99684.86;1769737;81;21730;-80
2022/09/23 03:12:10;;;;;;;39.10;22.27;;;;;;;13.93;69.30;99688.37;1769827;81;21841;-80
2022/09/23 03:15:36;;;;;;;41.33;24.23;;;;;;;14.13;68.70;99691.08;1771232;81;21184;-79
2022/09/23 03:18:52;;;;;;;45.00;23.70;;;;;;;14.02;68.90;99696.72;1771175;81;21719;-78
2022/09/23 03:22:17;;;;;;;42.67;22.87;;;;;;;14.06;68.68;99692.98;1770427;81;21222;-78
2022/09/23 03:25:26;;;;;;;43.08;22.50;;;;;;;14.05;68.70;99692.67;1771171;81;21197;-78
2022/09/23 03:28:31;;;;;;;43.78;25.02;;;;;;;14.05;68.63;99689.39;1771160;81;21188;-77
2022/09/23 03:31:36;;;;;;;44.10;23.38;;;;;;;14.13;68.26;99694.37;1771006;81;21246;-78
2022/09/23 03:34:42;;;;;;;44.35;24.35;;;;;;;14.17;68.04;99695.09;1771195;81;21163;-78
2022/09/23 03:38:18;;;;;;;40.08;21.55;;;;;;;14.14;68.06;99697.42;1771225;81;21163;-77
2022/09/23 03:41:28;;;;;;;43.13;22.75;;;;;;;14.13;68.07;99702.62;1769692;81;21727;-80
2022/09/23 03:44:38;;;;;;;47.85;22.32;;;;;;;14.11;68.12;99712.97;1771107;81;21813;-78
2022/09/23 03:47:41;;;;;;;45.75;24.98;;;;;;;14.06;68.24;99724.08;1762984;81;21754;-79
2022/09/23 03:50:48;;;;;;;40.15;23.07;;;;;;;14.05;68.31;99719.64;1769802;81;21726;-79
2022/09/23 03:53:53;;;;;;;51.37;25.48;;;;;;;13.98;68.55;99727.06;1771209;81;21215;-78
2022/09/23 03:56:59;;;;;;;47.83;25.57;;;;;;;14.00;68.65;99726.84;1771190;81;21179;-78
2022/09/23 04:00:05;;;;;;;40.55;22.45;;;;;;;13.99;68.85;99727.91;1782078;80;21772;-78
2022/09/23 04:03:12;;;;;;;35.23;18.55;;;;;;;14.06;68.82;99708.11;1783755;80;21233;-78
2022/09/23 04:06:17;;;;;;;27.75;17.48;;;;;;;14.13;68.74;99703.98;1784688;80;21197;-78
2022/09/23 04:09:23;;;;;;;26.50;15.32;;;;;;;14.10;69.06;99686.53;1785075;80;21178;-78
2022/09/23 04:12:29;;;;;;;23.95;14.03;;;;;;;14.17;69.21;99681.88;1783455;80;21508;-78
2022/09/23 04:15:34;;;;;;;22.87;12.47;;;;;;;14.27;68.99;99694.66;1784920;80;21178;-77
2022/09/23 04:18:39;;;;;;;25.05;14.93;;;;;;;14.17;69.37;99697.85;1783347;80;21753;-78
2022/09/23 04:21:45;;;;;;;25.00;14.87;;;;;;;14.18;69.50;99704.19;1783691;80;21159;-79
2022/09/23 04:24:51;;;;;;;22.45;15.05;;;;;;;14.14;69.65;99712.55;1784892;80;21715;-79
2022/09/23 04:27:58;;;;;;;22.58;13.32;;;;;;;14.20;69.64;99719.94;1783527;80;21185;-78
2022/09/23 04:31:02;;;;;;;20.08;12.18;;;;;;;14.21;69.59;99713.37;1783352;80;21186;-78
2022/09/23 04:34:08;;;;;;;21.87;10.68;;;;;;;14.27;69.44;99718.87;1783480;80;21805;-78
2022/09/23 04:37:16;;;;;;;14.05;9.75;;;;;;;14.27;69.57;99712.00;1784483;80;21745;-78
2022/09/23 04:40:21;;;;;;;17.60;9.18;;;;;;;14.35;69.56;99700.44;1784976;80;21179;-78
2022/09/23 04:43:28;;;;;;;17.10;8.25;;;;;;;14.31;69.75;99690.41;1784132;80;21187;-78
2022/09/23 04:46:34;;;;;;;13.38;7.80;;;;;;;14.28;69.95;99699.93;1784915;80;21186;-78
2022/09/23 04:49:40;;;;;;;11.18;7.08;;;;;;;14.31;70.04;99698.13;1798237;79;21157;-78
2022/09/23 04:52:47;;;;;;;9.78;6.22;;;;;;;14.36;70.07;99704.36;1797467;79;21178;-78
2022/09/23 04:55:54;;;;;;;11.63;5.87;;;;;;;14.50;69.82;99712.09;1783317;80;21224;-77
2022/09/23 04:59:00;;;;;;;9.03;6.47;;;;;;;14.61;70.03;99711.94;1782083;80;21185;-78
2022/09/23 05:02:05;;;;;;;8.00;5.37;;;;;;;14.71;70.23;99715.07;1785087;79;21171;-77
2022/09/23 05:05:11;;;;;;;7.80;5.78;;;;;;;14.73;70.47;99717.09;1770613;81;21738;-78
2022/09/23 05:08:10;;;;;;;7.17;5.78;;;;;;;14.81;70.25;99718.20;1769285;81;21227;-78
2022/09/23 05:11:16;;;;;;;8.35;6.17;;;;;;;14.93;69.92;99705.98;1768784;79;21176;-77
2022/09/23 05:14:22;;;;;;;8.28;5.83;;;;;;;14.95;69.85;99701.93;1786565;78;21179;-78
2022/09/23 05:17:30;;;;;;;9.18;6.12;;;;;;;15.08;69.68;99689.47;1780630;79;21189;-80
2022/09/23 05:20:36;;;;;;;12.45;6.12;;;;;;;15.14;69.39;99680.02;1785976;78;21162;-79
2022/09/23 05:23:42;;;;;;;9.70;6.40;;;;;;;15.19;69.22;99691.20;1724085;81;21189;-79
2022/09/23 05:26:49;;;;;;;7.45;5.72;;;;;;;15.23;69.09;99678.69;1781004;79;21447;-79
2022/09/23 05:30:00;;;;;;;9.85;5.97;;;;;;;15.28;69.20;99683.83;1781194;78;21177;-80
2022/09/23 05:33:07;;;;;;;10.23;6.83;;;;;;;15.39;68.39;99682.84;1790041;79;21229;-80
2022/09/23 05:36:24;;;;;;;11.97;7.55;;;;;;;15.59;68.00;99687.12;1771652;79;21800;-80
2022/09/23 05:39:42;;;;;;;9.63;7.05;;;;;;;15.67;67.28;99687.95;1768905;79;21161;-79
2022/09/23 05:42:47;;;;;;;10.95;6.65;;;;;;;15.88;66.67;99680.65;1723041;81;21181;-79
2022/09/23 05:45:56;;;;;;;13.53;6.35;;;;;;;16.02;65.63;99674.47;1784287;79;21248;-79
2022/09/23 05:49:04;;;;;;;8.45;6.45;;;;;;;16.20;64.36;99679.18;1776932;79;21380;-79
2022/09/23 05:52:11;;;;;;;15.68;5.70;;;;;;;16.32;63.88;99682.31;1776946;78;21203;-79
2022/09/23 05:55:17;;;;;;;11.33;6.40;;;;;;;16.51;62.71;99693.36;1780128;79;22457;-79
2022/09/23 05:58:23;;;;;;;12.98;6.53;;;;;;;16.68;62.26;99696.36;1779589;78;21193;-79
2022/09/23 06:01:31;;;;;;;10.80;6.37;;;;;;;16.80;61.38;99701.45;1791113;77;21181;-79
2022/09/23 06:04:40;;;;;;;8.60;5.58;;;;;;;16.93;60.88;99688.83;1790003;77;21177;-80
2022/09/23 06:07:46;;;;;;;7.15;5.15;;;;;;;17.13;60.25;99698.80;1737028;80;21184;-80
2022/09/23 06:10:53;;;;;;;5.20;3.52;;;;;;;17.05;60.03;99706.86;1734466;81;21194;-80
2022/09/23 06:14:03;;;;;;;5.28;3.20;;;;;;;17.14;59.35;99700.48;1745705;80;21233;-80
2022/09/23 06:17:09;;;;;;;4.33;3.00;;;;;;;17.23;59.16;99714.27;1724119;80;22188;-80
2022/09/23 06:20:15;;;;;;;8.80;2.87;;;;;;;17.29;57.75;99714.71;1744781;80;21148;-80
2022/09/23 06:23:09;;;;;;;4.33;2.35;;;;;;;17.41;57.49;99715.61;1729258;81;21233;-79
2022/09/23 06:26:20;;;;;;;10.13;3.20;;;;;;;17.44;57.20;99716.50;1737371;81;21581;-79
2022/09/23 06:29:25;;;;;;;3.45;2.40;;;;;;;17.56;56.42;99733.98;1732557;81;21213;-79
2022/09/23 06:32:30;;;;;;;4.12;3.15;;;;;;;17.65;56.37;99736.41;1743030;80;21207;-79
2022/09/23 06:35:36;;;;;;;4.58;3.10;;;;;;;17.76;55.74;99735.08;1758040;81;21294;-78
2022/09/23 06:38:49;;;;;;;7.37;2.72;;;;;;;17.90;55.17;99732.10;1749571;81;21469;-78
2022/09/23 06:41:50;;;;;;;5.97;2.95;;;;;;;18.07;54.57;99728.94;1756277;80;22347;-79
2022/09/23 06:44:56;;;;;;;4.20;3.35;;;;;;;18.22;53.75;99731.23;1761470;80;21215;-78
2022/09/23 06:47:58;;;;;;;8.08;3.90;;;;;;;18.17;54.02;99733.87;1749563;80;21210;-79
2022/09/23 06:51:18;;;;;;;9.78;3.50;;;;;;;18.25;53.46;99730.73;1754825;80;21208;-79
2022/09/23 06:54:23;;;;;;;7.30;3.75;;;;;;;18.47;53.13;99736.52;1757410;80;21201;-79
2022/09/23 06:57:23;;;;;;;4.92;3.67;;;;;;;18.54;52.26;99742.23;1757500;80;22384;-79
2022/09/23 07:00:18;;;;;;;8.13;3.50;;;;;;;18.57;51.54;99737.58;1733191;80;21218;-79
2022/09/23 07:03:09;;;;;;;5.40;3.80;;;;;;;18.60;50.61;99737.66;1730739;81;21274;-80
2022/09/23 07:06:03;;;;;;;6.50;3.67;;;;;;;18.60;50.65;99737.11;1767626;78;21255;-79
2022/09/23 07:09:09;;;;;;;6.37;3.62;;;;;;;18.69;50.42;99738.16;1786321;78;21169;-79
2022/09/23 07:12:19;;;;;;;12.03;3.92;;;;;;;18.73;49.61;99728.28;1778975;78;22448;-79
2022/09/23 07:15:26;;;;;;;4.58;3.40;;;;;;;18.92;48.87;99728.41;1780020;79;21192;-79
2022/09/23 07:18:27;;;;;;;10.63;4.65;;;;;;;18.89;49.05;99717.81;1786128;78;21158;-79
2022/09/23 07:21:33;;;;;;;7.83;5.17;;;;;;;18.92;49.29;99722.88;1775206;78;21192;-79
2022/09/23 07:24:41;;;;;;;9.40;4.37;;;;;;;19.07;49.01;99718.18;1779463;79;22316;-80
2022/09/23 07:27:48;;;;;;;6.92;4.78;;;;;;;19.12;49.03;99705.27;1776784;79;21778;-79
2022/09/23 07:30:55;;;;;;;7.12;4.47;;;;;;;19.10;48.78;99704.68;1780413;78;21196;-78
2022/09/23 07:34:03;;;;;;;7.25;4.30;;;;;;;19.13;48.57;99696.40;1783838;78;21164;-79
2022/09/23 07:37:09;;;;;;;7.17;4.03;;;;;;;19.17;48.34;99706.45;1777267;79;21169;-79
2022/09/23 07:40:15;;;;;;;6.47;4.55;;;;;;;19.17;47.57;99712.84;1785284;78;21185;-79
2022/09/23 07:43:21;;;;;;;8.03;4.75;;;;;;;19.27;47.73;99716.35;1780559;79;21197;-80
2022/09/23 07:46:26;;;;;;;7.10;4.20;;;;;;;19.39;47.24;99715.22;1775955;79;21158;-80
2022/09/23 07:49:33;;;;;;;9.30;4.17;;;;;;;19.55;47.04;99711.33;1778824;79;21161;-80
2022/09/23 07:52:32;;;;;;;6.35;4.33;;;;;;;19.65;46.31;99712.94;1776629;78;21216;-80
2022/09/23 07:55:24;;;;;;;12.55;4.28;;;;;;;19.85;45.27;99716.60;1716025;81;21739;-80
2022/09/23 07:58:24;;;;;;;12.88;3.55;;;;;;;19.86;45.51;99721.08;1775075;78;21733;-79
2022/09/23 08:01:16;;;;;;;5.90;3.85;;;;;;;19.86;44.93;99719.69;1787747;78;21154;-80
2022/09/23 08:04:16;;;;;;;5.15;2.40;;;;;;;19.80;45.36;99721.52;1770810;77;21211;-80
2022/09/23 08:07:11;;;;;;;7.53;2.42;;;;;;;19.75;44.30;99715.04;1796744;78;21149;-80
2022/09/23 08:10:19;;;;;;;5.17;2.67;;;;;;;19.81;44.36;99714.06;1791733;78;21141;-80
2022/09/23 08:13:25;;;;;;;6.15;3.15;;;;;;;19.83;44.05;99707.70;1778748;78;21547;-80
2022/09/23 08:16:31;;;;;;;3.47;2.87;;;;;;;19.97;43.91;99706.82;1729002;82;21160;-79
2022/09/23 08:19:37;;;;;;;9.48;1.77;;;;;;;20.08;44.08;99710.87;1721100;82;21176;-78
2022/09/23 08:22:42;;;;;;;7.72;2.00;;;;;;;20.11;42.62;99706.77;1732844;80;21149;-78
2022/09/23 08:25:48;;;;;;;2.72;2.05;;;;;;;19.96;42.34;99701.82;1713112;82;21211;-78
2022/09/23 08:28:57;;;;;;;3.45;2.95;;;;;;;19.77;43.54;99707.33;1733409;80;22217;-79
2022/09/23 08:32:08;;;;;;;6.83;4.00;;;;;;;19.75;43.89;99716.42;1732663;80;21230;-80
2022/09/23 08:35:14;;;;;;;4.83;2.45;;;;;;;19.77;44.27;99707.33;1714459;81;21165;-79
2022/09/23 08:38:19;;;;;;;7.58;2.45;;;;;;;19.61;43.84;99700.09;1744251;80;21464;-79
2022/09/23 08:41:48;;;;;;;7.87;2.40;;;;;;;19.61;43.52;99697.88;1728189;80;21161;-79
2022/09/23 08:45:01;;;;;;;2.12;1.70;;;;;;;19.60;44.18;99698.97;1728672;82;21193;-79
2022/09/23 08:48:12;;;;;;;2.42;1.77;;;;;;;19.70;44.69;99705.24;1742136;80;21219;-79
2022/09/23 08:51:23;;;;;;;7.37;2.45;;;;;;;19.84;44.45;99699.11;1740344;81;21351;-80
2022/09/23 08:54:30;;;;;;;2.00;1.52;;;;;;;20.00;43.03;99700.78;1721130;83;21218;-81
2022/09/23 08:57:49;;;;;;;3.75;1.42;;;;;;;20.28;42.64;99699.80;1727119;82;21318;-80
2022/09/23 09:01:50;;;;;;;2.50;1.50;;;;;;;20.37;41.82;99702.43;1703632;81;21244;-80
2022/09/23 09:05:05;;;;;;;1.82;1.60;;;;;;;20.39;41.17;99703.87;1738323;80;21248;-81
2022/09/23 09:08:11;;;;;;;4.15;1.65;;;;;;;20.28;41.16;99707.61;1708005;81;21192;-79
2022/09/23 09:11:16;;;;;;;5.58;2.25;;;;;;;20.33;41.77;99702.67;1754399;81;21173;-79
2022/09/23 09:14:37;;;;;;;4.55;1.87;;;;;;;20.27;41.50;99706.45;1737344;81;21145;-79
2022/09/23 09:17:48;;;;;;;2.08;1.85;;;;;;;20.12;42.27;99712.06;1721796;81;21220;-79
2022/09/23 09:21:08;;;;;;;4.55;2.08;;;;;;;20.17;42.65;99708.53;1730046;81;22128;-79
2022/09/23 09:24:18;;;;;;;3.58;1.80;;;;;;;20.17;41.28;99703.81;1717978;81;21533;-79
2022/09/23 09:27:24;;;;;;;3.00;2.30;;;;;;;20.16;41.07;99717.41;1751837;79;21181;-79
2022/09/23 09:30:24;;;;;;;2.72;2.20;;;;;;;20.24;39.20;99711.98;1724908;81;21571;-79
2022/09/23 09:33:33;;;;;;;4.72;2.05;;;;;;;20.33;39.72;99706.30;1731940;81;21192;-80
2022/09/23 09:37:05;;;;;;;7.40;2.00;;;;;;;20.57;39.64;99711.11;1741753;81;21190;-80
2022/09/23 09:40:12;;;;;;;1.62;1.52;;;;;;;20.79;38.76;99694.98;1725807;81;21203;-79
2022/09/23 09:43:25;;;;;;;3.12;1.82;;;;;;;21.03;39.66;99702.52;1750647;81;21250;-79
2022/09/23 09:46:53;;;;;;;2.50;1.77;;;;;;;20.92;39.41;99714.90;1701498;81;21647;-80
2022/09/23 09:50:20;;;;;;;3.00;1.80;;;;;;;20.79;40.06;99704.72;1742280;80;21229;-79
2022/09/23 09:53:34;;;;;;;1.75;1.57;;;;;;;20.75;39.81;99708.58;1744437;81;21249;-80
2022/09/23 09:56:43;;;;;;;4.00;1.52;;;;;;;20.66;38.08;99699.02;1736700;81;21181;-79
2022/09/23 09:59:48;;;;;;;4.35;1.47;;;;;;;20.64;37.59;99715.91;1757697;80;21255;-79
2022/09/23 10:03:07;;;;;;;3.15;1.90;;;;;;;20.49;38.43;99718.48;1740193;81;21269;-78
2022/09/23 10:06:31;;;;;;;2.75;1.82;;;;;;;20.45;37.86;99716.45;1749278;80;21160;-79
2022/09/23 10:09:44;;;;;;;4.28;1.90;;;;;;;20.31;38.83;99704.84;1736394;80;22215;-78
2022/09/23 10:12:53;;;;;;;3.52;2.12;;;;;;;20.46;39.74;99714.78;1742414;80;21482;-78
2022/09/23 10:15:56;;;;;;;3.17;1.77;;;;;;;20.54;38.73;99712.16;1755981;80;22251;-79
2022/09/23 10:19:00;;;;;;;1.67;1.45;;;;;;;20.60;38.85;99713.36;1736775;80;21245;-78
2022/09/23 10:22:09;;;;;;;3.37;1.60;;;;;;;20.57;38.44;99706.11;1713872;82;21227;-78
2022/09/23 10:25:18;;;;;;;2.50;1.40;;;;;;;20.47;38.71;99701.77;1777796;79;21162;-79
2022/09/23 10:29:01;;;;;;;1.70;1.22;;;;;;;20.47;36.96;99697.60;1777475;79;21173;-78
2022/09/23 10:32:36;;;;;;;1.67;1.10;;;;;;;20.43;36.55;99696.72;1778472;79;21181;-80
2022/09/23 10:35:44;;;;;;;1.62;1.07;;;;;;;20.41;36.64;99703.61;1777336;79;21241;-78
2022/09/23 10:38:50;;;;;;;9.48;3.47;;;;;;;20.40;36.23;99699.16;1779320;78;21834;-79
2022/09/23 10:49:29;;;;;;;3.00;1.67;;;;;;;20.72;33.92;99709.09;1776026;79;21186;-79
2022/09/23 10:52:42;;;;;;;1.32;1.10;;;;;;;20.81;33.86;99713.66;1773401;78;21217;-78
2022/09/23 10:55:56;;;;;;;2.55;0.98;;;;;;;20.72;33.94;99706.86;1779626;79;22429;-79
2022/09/23 10:59:36;;;;;;;4.60;1.40;;;;;;;20.76;34.16;99709.42;1777693;79;21158;-79
2022/09/23 11:02:55;;;;;;;1.95;1.22;;;;;;;20.86;33.94;99702.59;1783302;79;21182;-79
2022/09/23 11:06:37;;;;;;;1.75;1.00;;;;;;;20.99;33.43;99700.82;1774028;79;22634;-79
2022/09/23 11:10:02;;;;;;;1.40;1.12;;;;;;;20.95;33.46;99701.05;1777901;79;21186;-79
2022/09/23 11:13:40;;;;;;;0.95;0.80;;;;;;;21.02;33.89;99704.45;1775258;79;21326;-79
2022/09/23 11:17:17;;;;;;;0.88;0.70;;;;;;;20.99;32.80;99699.44;1758452;79;21840;-79
2022/09/23 11:20:40;;;;;;;2.95;0.93;;;;;;;21.09;32.32;99689.81;1791378;79;21241;-80
2022/09/23 11:24:26;;;;;;;0.85;0.70;;;;;;;21.30;31.82;99703.39;1776407;79;21229;-80
2022/09/23 11:27:42;;;;;;;2.05;1.07;;;;;;;21.36;31.89;99704.31;1767475;78;21225;-80
2022/09/23 11:31:05;;;;;;;1.30;0.80;;;;;;;21.13;32.45;99704.89;1788226;79;21158;-80
2022/09/23 11:34:31;;;;;;;3.52;0.93;;;;;;;21.09;32.24;99701.49;1775448;79;21205;-78
2022/09/23 11:37:42;;;;;;;1.67;0.70;;;;;;;21.02;32.23;99705.84;1817539;78;21228;-79
2022/09/23 11:40:53;;;;;;;2.02;0.90;;;;;;;21.06;32.36;99706.17;1717049;81;21323;-79
2022/09/23 11:44:03;;;;;;;2.33;1.50;;;;;;;21.13;32.58;99697.93;1771261;79;21165;-79
2022/09/23 11:47:25;;;;;;;1.10;0.80;;;;;;;21.10;32.34;99698.44;1782194;79;21762;-79
2022/09/23 11:50:48;;;;;;;1.82;0.90;;;;;;;21.03;32.68;99695.56;1766389;79;21229;-79
2022/09/23 11:54:06;;;;;;;1.37;0.85;;;;;;;21.26;32.99;99705.56;1785785;79;21161;-78
2022/09/23 11:57:17;;;;;;;3.02;1.00;;;;;;;21.23;32.17;99699.98;1777101;79;21579;-79
2022/09/23 12:00:33;;;;;;;1.47;1.30;;;;;;;21.21;32.13;99704.95;1787320;79;21852;-79
2022/09/23 12:04:11;;;;;;;1.22;1.12;;;;;;;21.19;32.24;99712.73;1797054;79;21240;-78
2022/09/23 12:07:22;;;;;;;2.17;1.20;;;;;;;21.09;31.48;99709.28;1778652;79;21260;-79
2022/09/23 12:10:35;;;;;;;2.25;1.40;;;;;;;20.91;32.29;99706.83;1773252;79;21857;-79
2022/09/23 12:13:58;;;;;;;3.12;1.47;;;;;;;20.65;32.59;99702.34;1771526;79;21615;-79
2022/09/23 12:17:28;;;;;;;4.95;1.72;;;;;;;20.65;33.00;99709.29;1790412;79;21546;-79
2022/09/23 12:20:54;;;;;;;2.67;1.40;;;;;;;20.64;32.68;99708.97;1765512;79;21248;-78
2022/09/23 12:24:16;;;;;;;6.42;1.85;;;;;;;20.68;32.76;99697.64;1778734;78;21364;-79
2022/09/23 12:27:44;;;;;;;2.45;1.77;;;;;;;20.67;33.26;99709.02;1792947;79;21209;-80
2022/09/23 12:30:50;;;;;;;3.47;1.60;;;;;;;20.58;32.60;99704.45;1787555;79;21210;-80
2022/09/23 12:34:01;;;;;;;2.37;1.80;;;;;;;20.49;34.08;99705.98;1799539;79;21327;-79
2022/09/23 12:37:12;;;;;;;2.50;1.80;;;;;;;20.56;33.79;99697.45;1791225;79;21248;-79
2022/09/23 12:40:43;;;;;;;1.98;1.42;;;;;;;20.57;33.53;99715.28;1781628;79;21141;-78
2022/09/23 12:43:55;;;;;;;1.40;1.30;;;;;;;20.62;32.89;99712.57;1790482;79;21167;-78
2022/09/23 12:47:27;;;;;;;2.05;1.20;;;;;;;20.88;32.27;99708.72;1777304;79;21181;-79
2022/09/23 12:51:06;;;;;;;5.75;1.20;;;;;;;20.94;32.29;99709.10;1783021;79;21140;-79
2022/09/23 12:54:23;;;;;;;;;;;;;;;20.98;32.17;99714.96;1789155;79;21176;-78
2022/09/23 12:57:48;;;;;;;5.33;1.45;;;;;;;20.99;32.78;99720.84;1783585;79;20222;-78
2022/09/23 13:00:59;;;;;;;2.45;1.45;;;;;;;21.05;33.39;99720.63;1765909;81;21211;-79
2022/09/23 13:07:34;;;;;;;1.62;1.42;;;;;;;21.18;33.38;99718.84;1768348;80;22057;-78
2022/09/23 13:10:52;;;;;;;3.12;1.30;;;;;;;20.98;33.61;99720.52;1775019;80;21135;-78
2022/09/23 13:13:59;;;;;;;2.35;1.30;;;;;;;20.85;33.71;99720.38;1776821;80;21196;-79
2022/09/23 13:17:05;;;;;;;3.35;1.37;;;;;;;20.82;33.74;99715.33;1775316;80;21199;-79
2022/09/23 13:20:28;;;;;;;3.83;1.10;;;;;;;20.62;34.23;99719.52;1775942;80;21274;-78
2022/09/23 13:23:37;;;;;;;6.47;1.10;;;;;;;20.56;34.21;99713.61;1775542;80;21227;-79
2022/09/23 13:26:42;;;;;;;2.40;1.17;;;;;;;20.46;34.45;99725.06;1776039;80;22158;-79
2022/09/23 13:29:56;;;;;;;3.52;0.90;;;;;;;20.41;34.08;99728.05;1789032;80;21176;-79
2022/09/23 13:33:22;;;;;;;4.42;0.80;;;;;;;20.47;33.62;99724.86;1789587;80;21184;-79
2022/09/23 13:36:23;;;;;;;4.03;1.02;;;;;;;20.51;33.90;99721.84;1789772;80;21200;-79
2022/09/23 13:39:33;;;;;;;2.95;0.90;;;;;;;20.72;34.24;99722.98;1788792;80;21196;-78
2022/09/23 13:42:45;;;;;;;5.90;1.07;;;;;;;20.88;33.60;99735.13;1792217;80;21889;-80
2022/09/23 13:46:04;;;;;;;1.22;0.80;;;;;;;20.84;33.75;99735.35;1790912;80;21243;-80
2022/09/23 13:49:11;;;;;;;1.27;0.62;;;;;;;20.65;33.78;99734.30;1790843;80;21318;-80
2022/09/23 13:52:31;;;;;;;1.25;0.78;;;;;;;20.35;34.35;99731.02;1775058;80;21189;-80
2022/09/23 13:55:40;;;;;;;3.47;0.90;;;;;;;20.21;34.69;99740.80;1776244;80;21834;-78
2022/09/23 13:58:47;;;;;;;1.17;0.80;;;;;;;20.01;34.83;99737.14;1776364;80;21739;-78
2022/09/23 14:01:53;;;;;;;1.55;0.88;;;;;;;19.83;35.19;99739.61;1737795;82;21216;-78
2022/09/23 14:04:57;;;;;;;1.82;0.90;;;;;;;19.75;34.94;99734.47;1702269;84;21223;-78
2022/09/23 14:07:50;;;;;;;1.32;0.80;;;;;;;19.69;34.93;99745.19;1693626;82;21235;-79
2022/09/23 14:10:57;;;;;;;1.57;0.88;;;;;;;19.66;35.26;99743.19;1738430;82;21208;-79
2022/09/23 14:14:06;;;;;;;3.40;0.70;;;;;;;19.63;35.15;99749.26;1700683;84;21240;-79
2022/09/23 14:17:12;;;;;;;5.20;0.70;;;;;;;19.60;34.84;99748.91;1733873;81;21177;-79
2022/09/23 14:20:23;;;;;;;0.93;0.80;;;;;;;19.58;34.92;99753.30;1711653;83;21202;-80
2022/09/23 14:23:29;;;;;;;2.98;0.68;;;;;;;19.57;34.86;99754.91;1732314;83;21768;-79
2022/09/23 14:26:35;;;;;;;1.92;0.68;;;;;;;19.45;35.19;99760.52;1732682;83;21498;-79
2022/09/23 14:29:45;;;;;;;11.60;1.32;;;;;;;19.39;35.71;99758.75;1730548;81;21201;-78
2022/09/23 14:32:50;;;;;;;5.25;1.00;;;;;;;19.34;36.19;99762.27;1762507;81;21209;-79
2022/09/23 14:35:59;;;;;;;6.42;0.70;;;;;;;19.38;36.46;99758.43;1740607;82;21183;-79
2022/09/23 14:39:17;;;;;;;6.05;1.05;;;;;;;19.35;36.47;99749.23;1754133;81;21280;-79
2022/09/23 14:42:22;;;;;;;7.78;0.80;;;;;;;19.39;36.33;99746.27;1738277;82;21208;-78
2022/09/23 14:45:32;;;;;;;3.50;0.70;;;;;;;19.01;36.39;99751.89;1753260;81;21180;-78
2022/09/23 14:48:40;;;;;;;3.30;0.70;;;;;;;18.96;36.21;99751.78;1739434;82;21204;-78
2022/09/23 14:52:05;;;;;;;1.65;0.70;;;;;;;18.93;36.18;99759.19;1751351;81;22341;-79
2022/09/23 14:55:10;;;;;;;0.65;0.50;;;;;;;18.93;36.25;99753.64;1738228;82;21227;-78
2022/09/23 14:58:22;;;;;;;1.72;0.78;;;;;;;18.57;36.79;99752.81;1747406;81;21190;-78
2022/09/23 15:01:39;;;;;;;2.85;0.50;;;;;;;18.41;36.63;99754.10;1740181;82;21747;-78
2022/09/23 15:04:45;;;;;;;2.05;0.60;;;;;;;18.71;36.47;99759.52;1755986;81;21193;-78
2022/09/23 15:07:59;;;;;;;3.22;0.68;;;;;;;18.72;36.45;99762.58;1754840;81;21180;-78